Time;durP1;ratioP1;P1;durP2;ratioP2;P2;SDS_P1;SDS_P2;PMS_P1;PMS_P2;Temp;Humidity;BMP_temperature;BMP_pressure;BME280_temperature;BME280_humidity;BME280_pressure;Samples;Min_cycle;Max_cycle;Signal;HPM_P1;HPM_P2
2021/07/23 00:01:31;;;;;;;;;;;;;;;20.68;61.97;100778.44;5138283;27;779;-55
2021/07/23 00:03:57;;;;;;;;;;;;;;;20.85;61.80;100777.06;5137579;27;1145;-45
2021/07/23 00:06:22;;;;;;;;;;;;;;;20.96;61.65;100769.44;5157992;27;786;-55
2021/07/23 00:08:47;;;;;;;;;;;;;;;20.32;63.87;100780.91;5157942;27;775;-56
2021/07/23 00:11:13;;;;;;;;;;;;;;;20.10;64.80;100774.03;5157975;27;969;-53
2021/07/23 00:13:38;;;;;;;;;;;;;;;19.82;63.49;100778.56;5158197;27;1909;-56
2021/07/23 00:16:04;;;;;;;;;;;;;;;19.62;62.97;100777.66;5158107;27;819;-55
2021/07/23 00:18:29;;;;;;;;;;;;;;;20.45;64.17;100774.63;5157866;27;795;-56
2021/07/23 00:20:55;;;;;;;;;;;;;;;20.67;63.91;100771.28;5158273;27;751;-55
2021/07/23 00:23:20;;;;;;;;;;;;;;;20.88;62.93;100772.88;5157868;27;791;-43
2021/07/23 00:25:45;;;;;;;;;;;;;;;20.75;63.14;100771.69;5158218;27;838;-54
2021/07/23 00:28:11;;;;;;;;;;;;;;;19.91;65.08;100770.44;5157738;27;957;-55
2021/07/23 00:30:36;;;;;;;;;;;;;;;19.71;63.54;100766.78;5158300;27;815;-55
2021/07/23 00:33:02;;;;;;;;;;;;;;;19.41;62.88;100768.00;5139226;27;929;-56
2021/07/23 00:35:28;;;;;;;;;;;;;;;19.70;60.41;100767.94;5139522;27;1984;-56
2021/07/23 00:37:55;;;;;;;;;;;;;;;19.96;58.50;100773.13;5158075;27;850;-56
2021/07/23 00:40:21;;;;;;;;;;;;;;;19.89;59.00;100764.41;5139641;27;1225;-56
2021/07/23 00:42:47;;;;;;;;;;;;;;;20.13;59.04;100767.09;5139346;27;1278;-56
2021/07/23 00:45:13;;;;;;;;;;;;;;;20.32;59.28;100769.88;5157527;27;763;-50
2021/07/23 00:47:39;;;;;;;;;;;;;;;20.32;59.86;100764.34;5139780;27;1227;-55
2021/07/23 00:50:05;;;;;;;;;;;;;;;20.43;59.83;100776.06;5160167;27;770;-55
2021/07/23 00:52:31;;;;;;;;;;;;;;;20.46;59.85;100775.47;5143398;27;1201;-57
2021/07/23 00:54:56;;;;;;;;;;;;;;;20.57;59.64;100767.84;5126355;27;1922;-44
2021/07/23 00:57:22;;;;;;;;;;;;;;;20.11;61.30;100767.41;5147689;27;965;-48
2021/07/23 00:59:48;;;;;;;;;;;;;;;19.87;62.31;100763.91;5122439;27;1087;-55
2021/07/23 01:02:14;;;;;;;;;;;;;;;19.61;62.42;100764.97;5122587;27;871;-54
2021/07/23 01:04:40;;;;;;;;;;;;;;;19.33;62.60;100766.69;5140605;27;1198;-56
2021/07/23 01:07:06;;;;;;;;;;;;;;;19.93;63.13;100768.22;5140688;27;756;-51
2021/07/23 01:09:31;;;;;;;;;;;;;;;20.48;61.65;100764.91;5122262;27;1116;-56
2021/07/23 01:11:57;;;;;;;;;;;;;;;20.48;62.19;100774.03;5122058;27;1200;-53
2021/07/23 01:14:25;;;;;;;;;;;;;;;20.63;61.93;100769.38;5105790;27;1906;-54
2021/07/23 01:16:52;;;;;;;;;;;;;;;20.08;64.20;100772.72;5122712;27;966;-54
2021/07/23 01:19:20;;;;;;;;;;;;;;;19.98;65.00;100773.69;5140569;27;779;-50
2021/07/23 01:21:48;;;;;;;;;;;;;;;19.73;63.87;100780.31;5122539;27;1313;-56
2021/07/23 01:24:14;;;;;;;;;;;;;;;19.49;64.72;100779.19;5140271;27;767;-55
2021/07/23 01:26:45;;;;;;;;;;;;;;;20.55;63.99;100783.88;5113438;27;1197;-55
2021/07/23 01:29:13;;;;;;;;;;;;;;;21.02;62.25;100773.72;5143038;27;771;-44
2021/07/23 01:31:40;;;;;;;;;;;;;;;21.05;62.08;100764.81;5161475;27;736;-55
2021/07/23 01:34:06;;;;;;;;;;;;;;;20.93;62.34;100781.06;5160769;27;1974;-56
2021/07/23 01:36:32;;;;;;;;;;;;;;;20.11;64.35;100772.91;5142379;27;1240;-56
2021/07/23 01:38:57;;;;;;;;;;;;;;;19.73;63.38;100775.59;5160948;27;775;-56
2021/07/23 01:41:24;;;;;;;;;;;;;;;19.36;61.87;100771.59;5125287;27;1327;-56
2021/07/23 01:43:52;;;;;;;;;;;;;;;19.58;61.03;100764.75;5125638;27;1381;-55
2021/07/23 01:46:18;;;;;;;;;;;;;;;19.68;59.10;100770.16;5161191;27;735;-54
2021/07/23 01:48:43;;;;;;;;;;;;;;;19.55;58.14;100773.63;5160481;27;605;-44
2021/07/23 01:51:20;;;;;;;;;;;;;;;19.74;56.78;100770.91;5142008;27;1329;-55
2021/07/23 01:53:48;;;;;;;;;;;;;;;19.79;56.14;100777.19;5160541;27;1905;-55
2021/07/23 01:56:14;;;;;;;;;;;;;;;19.66;55.66;100775.97;5142034;27;1172;-54
2021/07/23 01:58:42;;;;;;;;;;;;;;;19.54;55.50;100777.50;5160656;27;881;-49
2021/07/23 02:01:08;;;;;;;;;;;;;;;19.51;55.54;100773.38;5159747;27;830;-44
2021/07/23 02:03:39;;;;;;;;;;;;;;;19.73;56.10;100778.38;5142287;27;1301;-56
2021/07/23 02:06:06;;;;;;;;;;;;;;;19.76;57.58;100774.19;5142007;27;1355;-45
2021/07/23 02:08:32;;;;;;;;;;;;;;;19.83;59.04;100781.03;5160348;27;799;-55
2021/07/23 02:11:01;;;;;;;;;;;;;;;20.14;59.25;100780.59;5160253;27;961;-56
2021/07/23 02:13:28;;;;;;;;;;;;;;;20.25;59.96;100791.53;5160870;27;819;-55
2021/07/23 02:15:54;;;;;;;;;;;;;;;20.51;59.75;100780.91;5159790;27;1913;-57
2021/07/23 02:18:22;;;;;;;;;;;;;;;20.59;60.15;100788.50;5160633;27;783;-44
2021/07/23 02:20:49;;;;;;;;;;;;;;;20.70;60.26;100788.38;5141790;27;1230;-55
2021/07/23 02:23:16;;;;;;;;;;;;;;;20.20;62.05;100781.34;5141366;27;1154;-56
2021/07/23 02:25:43;;;;;;;;;;;;;;;19.73;64.22;100781.13;5141763;27;1292;-44
2021/07/23 02:28:10;;;;;;;;;;;;;;;19.52;63.40;100774.19;5141312;27;1266;-55
2021/07/23 02:30:39;;;;;;;;;;;;;;;20.04;62.96;100780.75;5159390;27;842;-55
2021/07/23 02:33:25;;;;;;;;;;;;;;;20.70;61.88;100783.66;5159937;27;1512;-55
2021/07/23 02:35:57;;;;;;;;;;;;;;;20.79;61.43;100775.50;5141320;27;1910;-55
2021/07/23 02:38:23;;;;;;;;;;;;;;;20.87;61.31;100779.53;5159730;27;811;-51
2021/07/23 02:40:56;;;;;;;;;;;;;;;20.90;61.45;100778.91;5140976;27;1315;-57
2021/07/23 02:43:22;;;;;;;;;;;;;;;20.07;64.14;100782.91;5141255;27;1105;-55
2021/07/23 02:45:49;;;;;;;;;;;;;;;19.86;65.08;100776.84;5141311;27;1214;-44
2021/07/23 02:48:15;;;;;;;;;;;;;;;19.48;63.38;100776.72;5159739;27;758;-54
2021/07/23 02:50:41;;;;;;;;;;;;;;;20.38;63.39;100784.44;5141012;27;1290;-56
2021/07/23 02:53:07;;;;;;;;;;;;;;;20.92;61.94;100780.25;5140860;27;1302;-56
2021/07/23 02:55:33;;;;;;;;;;;;;;;20.86;61.93;100781.47;5159522;27;1894;-54
2021/07/23 02:58:00;;;;;;;;;;;;;;;21.05;61.40;100775.88;5121999;27;1163;-57
2021/07/23 03:00:27;;;;;;;;;;;;;;;20.28;63.94;100788.16;5138600;27;751;-57
2021/07/23 03:02:54;;;;;;;;;;;;;;;20.02;65.06;100783.00;5139043;27;721;-57
2021/07/23 03:05:21;;;;;;;;;;;;;;;19.82;63.15;100782.16;5120064;27;1424;-58
2021/07/23 03:07:51;;;;;;;;;;;;;;;19.88;63.55;100782.06;5120458;27;985;-58
2021/07/23 03:10:17;;;;;;;;;;;;;;;20.66;62.73;100790.88;5138473;27;747;-46
2021/07/23 03:12:43;;;;;;;;;;;;;;;20.99;61.40;100788.97;5137082;27;965;-42
2021/07/23 03:15:09;;;;;;;;;;;;;;;21.03;61.29;100790.00;5138275;27;1909;-56
2021/07/23 03:17:35;;;;;;;;;;;;;;;20.84;62.28;100787.28;5103059;27;1223;-45
2021/07/23 03:20:05;;;;;;;;;;;;;;;20.15;64.79;100790.53;5138205;27;850;-49
2021/07/23 03:22:31;;;;;;;;;;;;;;;19.99;64.93;100784.41;5119885;27;808;-46
2021/07/23 03:25:00;;;;;;;;;;;;;;;19.75;62.11;100787.16;5120236;27;1136;-46
2021/07/23 03:27:55;;;;;;;;;;;;;;;20.67;63.20;100784.25;5128220;27;1242;-44
2021/07/23 03:30:28;;;;;;;;;;;;;;;21.08;62.00;100778.03;5137268;27;1116;-48
2021/07/23 03:32:57;;;;;;;;;;;;;;;21.26;61.22;100787.38;5119374;27;1216;-44
2021/07/23 03:35:26;;;;;;;;;;;;;;;21.58;60.21;100787.66;5138110;27;1926;-45
2021/07/23 03:37:54;;;;;;;;;;;;;;;20.35;64.12;100792.16;5119689;27;1483;-44
2021/07/23 03:40:26;;;;;;;;;;;;;;;20.12;64.63;100796.66;5119700;27;1334;-49
2021/07/23 03:42:54;;;;;;;;;;;;;;;19.87;62.01;100791.50;5137338;27;1153;-57
2021/07/23 03:45:24;;;;;;;;;;;;;;;20.81;62.48;100793.44;5138725;27;1342;-47
2021/07/23 03:48:11;;;;;;;;;;;;;;;21.30;61.49;100801.44;5158411;27;837;-46
2021/07/23 03:50:42;;;;;;;;;;;;;;;21.51;60.59;100788.84;5158486;27;1121;-54
2021/07/23 03:53:09;;;;;;;;;;;;;;;21.50;60.54;100802.97;5158496;27;828;-55
2021/07/23 03:55:54;;;;;;;;;;;;;;;20.68;63.29;100799.75;5158161;27;1933;-54
2021/07/23 03:58:32;;;;;;;;;;;;;;;20.22;65.03;100798.44;5138654;27;1140;-45
2021/07/23 04:00:58;;;;;;;;;;;;;;;19.74;63.58;100799.31;5158255;27;881;-48
2021/07/23 04:03:23;;;;;;;;;;;;;;;20.48;61.68;100793.38;5158371;27;748;-58
2021/07/23 04:05:55;;;;;;;;;;;;;;;20.91;62.99;100803.50;5139822;27;1211;-46
2021/07/23 04:08:21;;;;;;;;;;;;;;;21.00;61.73;100795.34;5158517;27;725;-45
2021/07/23 04:10:47;;;;;;;;;;;;;;;21.15;61.58;100792.31;5157737;27;803;-53
2021/07/23 04:13:12;;;;;;;;;;;;;;;21.15;62.15;100786.78;5118715;28;1108;-56
2021/07/23 04:15:42;;;;;;;;;;;;;;;20.46;64.62;100798.38;5119257;28;1979;-55
2021/07/23 04:18:08;;;;;;;;;;;;;;;20.42;65.15;100786.28;5119092;28;903;-49
2021/07/23 04:20:37;;;;;;;;;;;;;;;19.86;64.11;100787.06;5119373;28;1212;-47
2021/07/23 04:23:03;;;;;;;;;;;;;;;20.07;62.73;100791.19;5137814;27;846;-52
2021/07/23 04:25:30;;;;;;;;;;;;;;;20.90;63.75;100790.81;5123372;27;1396;-52
2021/07/23 04:27:56;;;;;;;;;;;;;;;21.47;62.97;100787.81;5141552;27;965;-48
2021/07/23 04:30:30;;;;;;;;;;;;;;;21.59;62.39;100783.75;5123271;27;1515;-51
2021/07/23 04:33:31;;;;;;;;;;;;;;;20.74;65.12;100789.41;5077790;28;1217;-55
2021/07/23 04:36:16;;;;;;;;;;;;;;;20.55;65.97;100784.69;5135646;27;1127;-50
2021/07/23 04:38:42;;;;;;;;;;;;;;;20.07;63.66;100787.63;5141957;27;819;-52
2021/07/23 04:41:08;;;;;;;;;;;;;;;20.15;62.36;100787.78;5141152;27;965;-55
2021/07/23 04:43:39;;;;;;;;;;;;;;;20.44;64.10;100795.09;5122623;27;1254;-54
2021/07/23 04:46:06;;;;;;;;;;;;;;;20.82;63.17;100788.75;5141009;27;823;-52
2021/07/23 04:48:35;;;;;;;;;;;;;;;20.99;61.48;100790.94;5123213;27;1307;-52
2021/07/23 04:51:08;;;;;;;;;;;;;;;20.90;61.17;100795.50;5127082;27;1148;-56
2021/07/23 04:53:52;;;;;;;;;;;;;;;20.62;61.43;100793.44;5161449;27;1966;-57
2021/07/23 04:56:36;;;;;;;;;;;;;;;20.86;60.28;100792.53;5161669;27;1113;-46
2021/07/23 04:59:01;;;;;;;;;;;;;;;20.65;60.76;100803.06;5161621;27;799;-51
2021/07/23 05:01:26;;;;;;;;;;;;;;;19.88;63.11;100793.09;5161426;27;743;-57
2021/07/23 05:03:52;;;;;;;;;;;;;;;19.80;63.25;100795.41;5161495;27;771;-56
2021/07/23 05:06:18;;;;;;;;;;;;;;;19.31;62.35;100802.00;5161317;27;1220;-51
2021/07/23 05:08:43;;;;;;;;;;;;;;;20.49;61.02;100806.06;5161907;27;783;-47
2021/07/23 05:11:10;;;;;;;;;;;;;;;20.33;60.87;100805.47;5161224;27;930;-56
2021/07/23 05:13:36;;;;;;;;;;;;;;;20.56;60.11;100802.91;5142402;27;1653;-49
2021/07/23 05:16:02;;;;;;;;;;;;;;;20.37;60.79;100805.72;5161489;27;1967;-46
2021/07/23 05:18:28;;;;;;;;;;;;;;;20.51;60.23;100809.34;5161495;27;802;-48
2021/07/23 05:20:54;;;;;;;;;;;;;;;20.47;60.03;100805.53;5142487;27;913;-45
2021/07/23 05:23:19;;;;;;;;;;;;;;;20.17;60.95;100801.28;5161083;27;799;-48
2021/07/23 05:25:45;;;;;;;;;;;;;;;20.46;60.63;100803.91;5161162;27;813;-45
2021/07/23 05:28:10;;;;;;;;;;;;;;;20.76;58.64;100807.34;5160772;27;1008;-51
2021/07/23 05:30:36;;;;;;;;;;;;;;;20.17;60.52;100807.63;5161871;27;790;-45
2021/07/23 05:33:01;;;;;;;;;;;;;;;20.69;59.58;100806.88;5160824;27;790;-47
2021/07/23 05:35:27;;;;;;;;;;;;;;;20.87;58.66;100802.44;5159946;27;1901;-57
2021/07/23 05:37:52;;;;;;;;;;;;;;;20.76;58.92;100806.50;5161106;27;819;-54
2021/07/23 05:40:18;;;;;;;;;;;;;;;21.02;58.27;100804.13;5160611;27;735;-45
2021/07/23 05:42:43;;;;;;;;;;;;;;;20.94;58.42;100805.63;5161140;27;953;-49
2021/07/23 05:45:09;;;;;;;;;;;;;;;21.14;57.91;100811.94;5160645;27;763;-49
2021/07/23 05:47:34;;;;;;;;;;;;;;;21.10;58.03;100811.75;5160494;27;763;-43
2021/07/23 05:50:00;;;;;;;;;;;;;;;20.78;59.00;100807.84;5160861;27;774;-45
2021/07/23 05:52:25;;;;;;;;;;;;;;;20.50;58.85;100806.88;5160674;27;1260;-46
2021/07/23 05:54:50;;;;;;;;;;;;;;;19.94;60.75;100809.31;5160052;27;1956;-49
2021/07/23 05:57:17;;;;;;;;;;;;;;;20.54;59.85;100804.34;5147603;27;964;-49
2021/07/23 05:59:42;;;;;;;;;;;;;;;20.66;59.36;100802.78;5139865;27;826;-48
2021/07/23 06:02:08;;;;;;;;;;;;;;;20.80;58.85;100808.38;5139898;27;834;-48
2021/07/23 06:04:34;;;;;;;;;;;;;;;20.87;58.83;100804.41;5139532;27;1114;-46
2021/07/23 06:07:02;;;;;;;;;;;;;;;20.69;59.07;100804.13;5121114;27;854;-45
2021/07/23 06:09:28;;;;;;;;;;;;;;;20.75;59.23;100799.34;5139583;27;854;-49
2021/07/23 06:11:53;;;;;;;;;;;;;;;20.67;59.56;100798.06;5139722;27;1017;-45
2021/07/23 06:14:19;;;;;;;;;;;;;;;20.65;58.55;100789.22;5139398;27;1929;-45
2021/07/23 06:16:44;;;;;;;;;;;;;;;20.72;58.91;100786.97;5139413;27;862;-51
2021/07/23 06:19:10;;;;;;;;;;;;;;;20.80;58.90;100786.28;5139222;27;783;-46
2021/07/23 06:21:35;;;;;;;;;;;;;;;20.78;59.18;100793.22;5139228;27;862;-46
2021/07/23 06:24:00;;;;;;;;;;;;;;;21.09;58.01;100785.22;5139178;27;775;-47
2021/07/23 06:26:26;;;;;;;;;;;;;;;21.08;58.15;100780.78;5144477;27;961;-54
2021/07/23 06:28:51;;;;;;;;;;;;;;;21.10;58.29;100775.81;5159817;27;802;-50
2021/07/23 06:31:17;;;;;;;;;;;;;;;20.87;58.90;100785.88;5160068;27;858;-52
2021/07/23 06:33:42;;;;;;;;;;;;;;;20.88;59.03;100783.94;5159715;27;755;-50
2021/07/23 06:36:08;;;;;;;;;;;;;;;20.48;59.13;100782.34;5159780;27;1917;-57
2021/07/23 06:38:33;;;;;;;;;;;;;;;20.32;60.28;100783.69;5160158;27;802;-50
2021/07/23 06:40:59;;;;;;;;;;;;;;;20.48;60.41;100787.84;5159357;27;1027;-48
2021/07/23 06:43:25;;;;;;;;;;;;;;;20.91;60.43;100786.09;5159782;27;791;-46
2021/07/23 06:45:53;;;;;;;;;;;;;;;21.37;60.34;100774.19;5159480;27;731;-47
2021/07/23 06:48:19;;;;;;;;;;;;;;;21.41;61.47;100777.19;5159040;27;763;-58
2021/07/23 06:50:44;;;;;;;;;;;;;;;21.50;61.84;100776.16;5159327;27;1121;-44
2021/07/23 06:53:09;;;;;;;;;;;;;;;21.35;59.63;100774.50;5159443;27;858;-46
2021/07/23 06:55:35;;;;;;;;;;;;;;;20.97;58.32;100779.34;5159059;27;1905;-50
2021/07/23 06:58:00;;;;;;;;;;;;;;;21.24;60.32;100767.53;5159043;27;969;-47
2021/07/23 07:00:26;;;;;;;;;;;;;;;21.63;62.32;100771.78;5159399;27;866;-47
2021/07/23 07:02:51;;;;;;;;;;;;;;;21.88;63.33;100769.56;5159073;27;834;-46
2021/07/23 07:05:18;;;;;;;;;;;;;;;21.75;63.87;100774.00;5159131;27;1140;-47
2021/07/23 07:07:44;;;;;;;;;;;;;;;21.84;63.13;100763.06;5159325;27;810;-50
2021/07/23 07:10:09;;;;;;;;;;;;;;;21.25;60.17;100763.66;5159282;27;751;-50
2021/07/23 07:12:35;;;;;;;;;;;;;;;20.20;57.85;100766.72;5158757;27;1023;-45
2021/07/23 07:15:00;;;;;;;;;;;;;;;19.96;57.26;100768.47;5158854;27;1909;-51
2021/07/23 07:17:28;;;;;;;;;;;;;;;19.81;54.61;100771.38;5158956;27;812;-45
2021/07/23 07:19:54;;;;;;;;;;;;;;;19.87;53.49;100774.94;5159017;27;801;-46
2021/07/23 07:22:19;;;;;;;;;;;;;;;20.16;56.14;100770.09;5158709;27;747;-48
2021/07/23 07:24:45;;;;;;;;;;;;;;;20.68;57.39;100769.34;5158347;27;775;-48
2021/07/23 07:27:13;;;;;;;;;;;;;;;20.94;58.65;100769.72;5158546;27;1036;-48
2021/07/23 07:29:38;;;;;;;;;;;;;;;21.16;59.27;100769.03;5159364;27;843;-47
2021/07/23 07:32:04;;;;;;;;;;;;;;;21.18;60.01;100764.03;5158577;27;735;-48
2021/07/23 07:34:34;;;;;;;;;;;;;;;21.16;60.79;100754.41;5140084;27;1976;-44
2021/07/23 07:37:00;;;;;;;;;;;;;;;20.98;60.86;100762.44;5158301;27;866;-46
2021/07/23 07:39:25;;;;;;;;;;;;;;;20.60;60.21;100770.00;5159043;27;743;-47
2021/07/23 07:41:50;;;;;;;;;;;;;;;20.76;61.73;100773.34;5158488;27;957;-50
2021/07/23 07:44:16;;;;;;;;;;;;;;;21.02;62.70;100766.25;5158706;27;882;-44
2021/07/23 07:46:41;;;;;;;;;;;;;;;21.39;61.22;100763.63;5158255;27;842;-44
2021/07/23 07:49:07;;;;;;;;;;;;;;;21.48;60.92;100756.25;5158241;27;843;-44
2021/07/23 07:51:32;;;;;;;;;;;;;;;21.19;62.08;100762.88;5158263;27;802;-45
2021/07/23 07:53:58;;;;;;;;;;;;;;;21.12;62.45;100764.44;5158351;27;1977;-45
2021/07/23 07:56:23;;;;;;;;;;;;;;;21.03;59.98;100767.09;5157894;27;933;-52
2021/07/23 07:58:49;;;;;;;;;;;;;;;20.93;59.87;100757.03;5157929;27;787;-45
2021/07/23 08:01:14;;;;;;;;;;;;;;;21.19;62.45;100770.38;5158340;27;767;-51
2021/07/23 08:03:40;;;;;;;;;;;;;;;21.47;62.11;100764.88;5157950;27;770;-53
2021/07/23 08:06:06;;;;;;;;;;;;;;;21.44;62.03;100771.03;5157796;27;1215;-53
2021/07/23 08:08:32;;;;;;;;;;;;;;;21.19;62.47;100765.66;5158435;27;802;-45
2021/07/23 08:10:57;;;;;;;;;;;;;;;21.07;63.09;100781.94;5157636;27;1164;-47
2021/07/23 08:13:26;;;;;;;;;;;;;;;20.98;61.03;100790.09;5158147;27;834;-46
2021/07/23 08:15:52;;;;;;;;;;;;;;;20.71;58.85;100778.97;5157767;27;1909;-44
2021/07/23 08:18:18;;;;;;;;;;;;;;;20.71;63.61;100782.56;5139515;27;870;-47
2021/07/23 08:20:45;;;;;;;;;;;;;;;20.94;64.01;100779.94;5158438;27;735;-44
2021/07/23 08:23:11;;;;;;;;;;;;;;;20.93;62.81;100781.91;5158105;27;806;-45
2021/07/23 08:25:36;;;;;;;;;;;;;;;21.12;62.30;100775.50;5157957;27;810;-45
2021/07/23 08:28:02;;;;;;;;;;;;;;;20.98;62.87;100764.41;5157421;27;961;-45
2021/07/23 08:30:28;;;;;;;;;;;;;;;21.07;62.73;100773.66;5158126;27;818;-47
2021/07/23 08:32:55;;;;;;;;;;;;;;;20.84;60.45;100780.94;5157731;27;810;-47
2021/07/23 08:35:23;;;;;;;;;;;;;;;20.50;60.23;100777.31;5158162;27;1914;-46
2021/07/23 08:37:50;;;;;;;;;;;;;;;20.83;63.34;100780.16;5154968;27;818;-48
2021/07/23 08:40:18;;;;;;;;;;;;;;;21.18;63.14;100775.09;5157804;27;823;-46
2021/07/23 08:42:47;;;;;;;;;;;;;;;21.39;62.18;100776.66;5157693;27;964;-45
2021/07/23 08:45:17;;;;;;;;;;;;;;;21.13;63.03;100777.94;5157754;27;849;-44
2021/07/23 08:47:47;;;;;;;;;;;;;;;21.06;63.16;100774.78;5157657;27;814;-48
2021/07/23 08:50:24;;;;;;;;;;;;;;;20.79;61.90;100783.78;5140265;27;842;-44
2021/07/23 08:52:57;;;;;;;;;;;;;;;20.57;59.56;100770.59;5157575;27;778;-44
2021/07/23 08:55:32;;;;;;;;;;;;;;;20.90;61.31;100777.00;5157735;27;1970;-47
2021/07/23 08:58:03;;;;;;;;;;;;;;;20.99;63.55;100760.53;5157363;27;965;-45
2021/07/23 09:00:34;;;;;;;;;;;;;;;21.31;63.13;100756.06;5157642;27;842;-45
2021/07/23 09:03:05;;;;;;;;;;;;;;;21.39;62.42;100763.63;5157654;27;836;-45
2021/07/23 09:05:42;;;;;;;;;;;;;;;21.03;63.66;100762.38;5157523;27;1029;-45
2021/07/23 09:08:14;;;;;;;;;;;;;;;21.32;62.89;100765.97;5106647;27;895;-59
2021/07/23 09:10:47;;;;;;;;;;;;;;;21.23;59.13;100762.31;5159079;27;831;-47
2021/07/23 09:13:23;;;;;;;;;;;;;;;21.08;57.41;100764.22;5161132;27;790;-46
2021/07/23 09:15:58;;;;;;;;;;;;;;;21.26;60.97;100767.22;5161482;27;1976;-49
2021/07/23 09:18:41;;;;;;;;;;;;;;;21.47;62.71;100753.81;5126994;27;816;-46
2021/07/23 09:21:32;;;;;;;;;;;;;;;21.80;61.67;100754.53;5161060;27;810;-46
2021/07/23 09:24:23;;;;;;;;;;;;;;;21.24;61.63;100750.94;5126001;27;1089;-47
2021/07/23 09:27:14;;;;;;;;;;;;;;;21.02;63.06;100757.94;5158864;27;981;-46
2021/07/23 09:30:09;;;;;;;;;;;;;;;21.04;61.23;100746.59;5130177;27;1090;-50
2021/07/23 09:33:09;;;;;;;;;;;;;;;20.69;59.79;100762.69;5077766;27;989;-51
2021/07/23 09:36:26;;;;;;;;;;;;;;;21.20;61.83;100750.72;5100017;28;1969;-46
2021/07/23 09:39:15;;;;;;;;;;;;;;;21.62;61.97;100744.41;5069913;28;1494;-46
2021/07/23 09:42:25;;;;;;;;;;;;;;;21.97;60.54;100750.31;5090659;28;954;-50
2021/07/23 09:45:32;;;;;;;;;;;;;;;21.12;63.33;100748.66;5063970;28;913;-45
2021/07/23 09:49:04;;;;;;;;;;;;;;;21.07;60.61;100740.47;5029416;28;922;-45
2021/07/23 09:52:17;;;;;;;;;;;;;;;20.54;59.52;100740.81;5009761;28;905;-48
2021/07/23 09:54:46;;;;;;;;;;;;;;;21.31;61.54;100734.75;5038271;28;1914;-46
2021/07/23 09:57:11;;;;;;;;;;;;;;;21.64;62.36;100728.31;5075995;28;927;-51
2021/07/23 09:59:55;;;;;;;;;;;;;;;21.95;61.36;100735.94;5075731;27;1067;-54
2021/07/23 10:02:21;;;;;;;;;;;;;;;21.82;61.23;100732.88;5139670;27;534;-52
2021/07/23 10:04:49;;;;;;;;;;;;;;;21.37;62.73;100729.94;5139602;27;1065;-48
2021/07/23 10:07:22;;;;;;;;;;;;;;;21.57;61.55;100737.03;5139614;27;787;-51
2021/07/23 10:09:47;;;;;;;;;;;;;;;21.30;57.52;100735.06;5121121;27;808;-55
2021/07/23 10:12:15;;;;;;;;;;;;;;;21.13;60.42;100739.25;5133136;27;953;-53
2021/07/23 10:14:41;;;;;;;;;;;;;;;21.59;61.97;100732.00;5160201;27;1909;-53
2021/07/23 10:17:07;;;;;;;;;;;;;;;21.98;61.66;100724.25;5124336;27;1212;-51
2021/07/23 10:19:33;;;;;;;;;;;;;;;22.24;60.63;100731.97;5160101;27;1042;-53
2021/07/23 10:21:58;;;;;;;;;;;;;;;22.24;60.36;100731.97;5159503;27;851;-44
2021/07/23 10:24:24;;;;;;;;;;;;;;;21.92;60.13;100719.97;5159833;27;819;-56
2021/07/23 10:26:50;;;;;;;;;;;;;;;21.87;60.15;100715.38;5159777;27;977;-45
2021/07/23 10:29:16;;;;;;;;;;;;;;;21.33;58.40;100721.41;5140689;27;807;-49
2021/07/23 10:31:43;;;;;;;;;;;;;;;20.93;58.25;100726.63;5141445;27;1324;-53
2021/07/23 10:34:10;;;;;;;;;;;;;;;21.35;57.42;100726.66;5152157;27;1905;-52
2021/07/23 10:36:39;;;;;;;;;;;;;;;21.28;55.57;100717.94;5159795;27;794;-50
2021/07/23 10:39:04;;;;;;;;;;;;;;;21.00;54.16;100715.19;5159653;27;767;-45
2021/07/23 10:41:30;;;;;;;;;;;;;;;20.75;53.60;100713.66;5159718;27;937;-51
2021/07/23 10:43:55;;;;;;;;;;;;;;;20.79;53.43;100706.41;5159591;27;770;-54
2021/07/23 10:46:41;;;;;;;;;;;;;;;21.01;54.70;100705.75;5159810;27;763;-47
2021/07/23 10:49:06;;;;;;;;;;;;;;;21.50;56.69;100709.75;5144548;27;1667;-57
2021/07/23 10:51:50;;;;;;;;;;;;;;;21.35;58.80;100710.06;5159581;27;794;-55
2021/07/23 10:54:24;;;;;;;;;;;;;;;21.17;61.17;100709.03;5159573;27;1909;-55
2021/07/23 10:57:03;;;;;;;;;;;;;;;21.01;61.17;100708.50;5159149;27;989;-49
2021/07/23 10:59:43;;;;;;;;;;;;;;;20.74;57.73;100706.53;5159280;27;1516;-46
2021/07/23 11:02:14;;;;;;;;;;;;;;;21.53;61.10;100697.25;5165994;27;1472;-48
2021/07/23 11:04:40;;;;;;;;;;;;;;;21.92;61.92;100708.88;5168350;27;1012;-54
2021/07/23 11:07:06;;;;;;;;;;;;;;;21.94;62.10;100706.63;5159313;27;755;-56
2021/07/23 11:09:32;;;;;;;;;;;;;;;21.64;63.07;100693.19;5159373;27;746;-54
2021/07/23 11:11:57;;;;;;;;;;;;;;;21.63;62.86;100691.53;5158769;27;973;-46
2021/07/23 11:14:23;;;;;;;;;;;;;;;21.14;60.00;100690.28;5159448;27;1913;-44
2021/07/23 11:16:48;;;;;;;;;;;;;;;20.63;58.03;100680.97;5158817;27;866;-44
2021/07/23 11:19:18;;;;;;;;;;;;;;;20.91;59.74;100681.88;5140292;27;831;-52
2021/07/23 11:21:43;;;;;;;;;;;;;;;20.85;60.13;100692.22;5159220;27;827;-50
2021/07/23 11:24:09;;;;;;;;;;;;;;;21.00;57.44;100691.09;5139987;27;1254;-52
2021/07/23 11:26:34;;;;;;;;;;;;;;;20.77;56.00;100684.63;5158736;27;1012;-51
2021/07/23 11:29:00;;;;;;;;;;;;;;;20.82;54.09;100680.97;5158812;27;802;-54
2021/07/23 11:31:31;;;;;;;;;;;;;;;20.83;54.51;100686.19;5161214;27;1657;-48
2021/07/23 11:33:57;;;;;;;;;;;;;;;21.29;56.71;100680.88;5139351;27;1108;-51
2021/07/23 11:36:52;;;;;;;;;;;;;;;21.46;58.79;100680.22;5158974;27;1917;-48
2021/07/23 11:39:20;;;;;;;;;;;;;;;21.30;61.47;100676.97;5140675;27;1323;-46
2021/07/23 11:41:58;;;;;;;;;;;;;;;21.34;61.78;100673.28;5158108;27;941;-55
2021/07/23 11:44:24;;;;;;;;;;;;;;;21.06;60.18;100678.00;5159282;27;847;-45
2021/07/23 11:46:49;;;;;;;;;;;;;;;20.91;59.67;100670.81;5158515;27;850;-46
2021/07/23 11:49:15;;;;;;;;;;;;;;;21.49;62.42;100674.91;5158517;27;755;-52
2021/07/23 11:51:41;;;;;;;;;;;;;;;21.94;63.12;100671.47;5158153;27;743;-48
2021/07/23 11:54:07;;;;;;;;;;;;;;;22.15;63.16;100651.59;5158353;27;1970;-51
2021/07/23 11:56:33;;;;;;;;;;;;;;;21.47;64.76;100679.13;5162870;27;1366;-46
2021/07/23 11:58:59;;;;;;;;;;;;;;;21.26;61.37;100678.72;5161554;27;1401;-47
2021/07/23 12:01:26;;;;;;;;;;;;;;;20.23;57.28;100683.31;5174779;27;811;-45
2021/07/23 12:03:55;;;;;;;;;;;;;;;20.45;57.18;100669.66;5158407;27;782;-49
2021/07/23 12:06:26;;;;;;;;;;;;;;;20.33;54.57;100691.44;5157826;27;1037;-46
2021/07/23 12:08:53;;;;;;;;;;;;;;;20.37;51.94;100684.19;5158625;27;774;-45
2021/07/23 12:11:19;;;;;;;;;;;;;;;20.02;51.24;100689.16;5167873;27;914;-56
2021/07/23 12:13:44;;;;;;;;;;;;;;;20.09;50.36;100683.25;5158002;27;866;-52
2021/07/23 12:16:10;;;;;;;;;;;;;;;20.19;53.33;100674.81;5158156;27;1913;-56
2021/07/23 12:18:35;;;;;;;;;;;;;;;21.07;55.40;100684.34;5158558;27;882;-55
2021/07/23 12:21:12;;;;;;;;;;;;;;;21.27;57.85;100674.84;5157418;27;822;-48
2021/07/23 12:23:37;;;;;;;;;;;;;;;21.32;59.72;100671.94;5158135;27;759;-47
2021/07/23 12:26:02;;;;;;;;;;;;;;;21.11;62.10;100675.16;5157738;27;969;-47
2021/07/23 12:28:28;;;;;;;;;;;;;;;21.17;61.96;100671.13;5139588;27;803;-47
2021/07/23 12:30:56;;;;;;;;;;;;;;;21.12;60.20;100675.97;5164960;27;1509;-47
2021/07/23 12:33:25;;;;;;;;;;;;;;;20.74;60.14;100674.19;5170303;27;1495;-50
2021/07/23 12:35:52;;;;;;;;;;;;;;;21.52;62.25;100677.09;5167577;27;1909;-48
2021/07/23 12:38:18;;;;;;;;;;;;;;;21.89;63.48;100679.88;5140021;27;810;-48
2021/07/23 12:40:50;;;;;;;;;;;;;;;22.05;63.49;100677.59;5160383;27;1579;-49
2021/07/23 12:43:16;;;;;;;;;;;;;;;21.80;64.50;100677.03;5118270;28;889;-56
2021/07/23 12:45:42;;;;;;;;;;;;;;;21.45;62.66;100678.63;5140369;27;854;-46
2021/07/23 12:48:33;;;;;;;;;;;;;;;20.69;58.37;100682.53;5141097;27;738;-55
2021/07/23 12:51:11;;;;;;;;;;;;;;;20.38;57.97;100679.47;5141046;27;885;-56
2021/07/23 12:53:38;;;;;;;;;;;;;;;20.20;56.80;100670.09;5141099;27;866;-49
2021/07/23 12:56:07;;;;;;;;;;;;;;;20.44;54.96;100670.81;5124432;27;1910;-49
2021/07/23 12:58:36;;;;;;;;;;;;;;;20.76;54.15;100673.88;5161653;27;783;-47
2021/07/23 13:01:05;;;;;;;;;;;;;;;20.67;54.96;100673.72;5143127;27;1272;-55
2021/07/23 13:03:31;;;;;;;;;;;;;;;20.72;55.56;100681.13;5161899;27;771;-54